createdAt,value
2019-04-28T00:01:57.601Z,8.63
2019-04-28T00:05:15.623Z,7.60
2019-04-28T00:07:45.605Z,7.83
2019-04-28T00:10:17.235Z,8.30
2019-04-28T00:12:46.926Z,8.27
2019-04-28T00:15:18.109Z,8.00
2019-04-28T00:17:48.119Z,8.20
2019-04-28T00:20:47.114Z,7.57
2019-04-28T00:23:31.852Z,7.27
2019-04-28T00:26:17.300Z,8.03
2019-04-28T00:31:41.388Z,6.80
2019-04-28T00:34:16.591Z,7.23
2019-04-28T00:36:51.097Z,6.97
2019-04-28T00:39:25.408Z,7.07
2019-04-28T00:41:54.586Z,7.13
2019-04-28T00:44:25.697Z,6.63
2019-04-28T00:46:55.165Z,6.63
2019-04-28T00:50:02.137Z,6.33
2019-04-28T00:52:38.469Z,6.07
2019-04-28T00:55:07.394Z,5.80
2019-04-28T00:57:51.171Z,5.90
2019-04-28T01:00:14.593Z,6.30
2019-04-28T01:02:46.852Z,6.50
2019-04-28T01:05:21.236Z,5.57
2019-04-28T01:07:54.513Z,5.30
2019-04-28T01:10:32.541Z,5.30
2019-04-28T01:13:02.097Z,5.83
2019-04-28T01:15:52.490Z,5.53
2019-04-28T01:18:40.339Z,5.73
2019-04-28T01:21:10.727Z,5.13
2019-04-28T01:26:54.057Z,5.13
2019-04-28T01:29:23.148Z,5.10
2019-04-28T01:32:17.777Z,4.50
2019-04-28T01:34:50.664Z,4.77
2019-04-28T01:37:26.090Z,4.97
2019-04-28T01:39:55.917Z,4.93
2019-04-28T01:42:26.243Z,4.83
2019-04-28T01:45:02.557Z,4.40
2019-04-28T01:47:53.859Z,4.37
2019-04-28T01:50:21.331Z,4.40
2019-04-28T01:52:59.817Z,4.33
2019-04-28T01:55:39.541Z,4.50
2019-04-28T01:58:11.691Z,4.17
2019-04-28T02:00:44.180Z,3.60
2019-04-28T02:03:15.736Z,4.13
2019-04-28T02:05:51.198Z,4.00
2019-04-28T02:08:20.426Z,3.90
2019-04-28T02:10:51.942Z,3.87
2019-04-28T02:13:21.299Z,4.07
2019-04-28T02:15:50.598Z,4.10
2019-04-28T02:18:22.733Z,4.10
2019-04-28T02:21:01.856Z,3.37
2019-04-28T02:23:35.261Z,3.40
2019-04-28T02:26:12.158Z,3.47
2019-04-28T02:28:47.203Z,3.50
2019-04-28T02:31:21.478Z,3.60
2019-04-28T02:33:50.489Z,3.40
2019-04-28T02:36:26.211Z,3.47
2019-04-28T02:39:03.678Z,3.33
2019-04-28T02:41:41.163Z,3.70
2019-04-28T02:44:17.205Z,3.53
2019-04-28T02:47:01.201Z,3.20
2019-04-28T02:49:50.437Z,2.57
2019-04-28T02:52:41.745Z,2.90
2019-04-28T02:55:11.446Z,2.83
2019-04-28T02:57:40.796Z,3.13
2019-04-28T03:00:10.470Z,3.27
2019-04-28T03:02:41.374Z,2.70
2019-04-28T03:05:11.554Z,2.77
2019-04-28T03:07:51.183Z,3.00
2019-04-28T03:10:21.411Z,2.60
2019-04-28T03:12:51.681Z,2.93
2019-04-28T03:15:21.107Z,3.00
2019-04-28T03:17:53.152Z,2.27
2019-04-28T03:20:25.416Z,2.50
2019-04-28T03:22:55.789Z,2.50
2019-04-28T03:26:01.350Z,2.23
2019-04-28T03:28:47.715Z,2.33
2019-04-28T03:32:07.293Z,2.10
2019-04-28T03:34:13.322Z,2.20
2019-04-28T03:39:23.932Z,2.20
2019-04-28T03:41:53.203Z,2.60
2019-04-28T03:44:30.872Z,1.97
2019-04-28T03:47:03.070Z,2.20
2019-04-28T03:49:36.442Z,2.10
2019-04-28T03:52:06.947Z,1.83
2019-04-28T03:54:36.123Z,2.33
2019-04-28T03:57:05.748Z,2.20
2019-04-28T03:59:35.731Z,2.13
2019-04-28T04:04:54.541Z,2.40
2019-04-28T04:07:23.655Z,2.40
2019-04-28T04:10:11.664Z,1.70
2019-04-28T04:12:57.144Z,2.03
2019-04-28T04:15:55.415Z,1.70
2019-04-28T04:18:53.635Z,2.20
2019-04-28T04:21:23.255Z,1.77
2019-04-28T04:23:54.159Z,2.20
2019-04-28T04:26:24.421Z,1.90
2019-04-28T04:28:54.184Z,2.00
2019-04-28T04:31:23.636Z,2.00
2019-04-28T04:33:53.601Z,1.67
2019-04-28T04:36:25.547Z,1.77
2019-04-28T04:38:55.294Z,2.00
2019-04-28T04:41:25.955Z,1.70
2019-04-28T04:43:55.179Z,2.00
2019-04-28T04:46:26.967Z,1.53
2019-04-28T04:49:00.443Z,1.77
2019-04-28T04:51:43.343Z,1.67
2019-04-28T04:54:10.797Z,1.67
2019-04-28T04:56:59.917Z,1.60
2019-04-28T04:59:50.122Z,1.70
2019-04-28T05:02:50.697Z,1.80
2019-04-28T05:05:21.632Z,1.80
2019-04-28T05:08:15.476Z,1.50
2019-04-28T05:10:45.114Z,1.73
2019-04-28T05:13:15.140Z,1.53
2019-04-28T05:15:47.005Z,1.40
2019-04-28T05:18:24.951Z,1.40
2019-04-28T05:20:55.195Z,1.60
2019-04-28T05:23:41.061Z,1.73
2019-04-28T05:26:12.305Z,1.47
2019-04-28T05:28:50.514Z,1.63
2019-04-28T05:31:20.620Z,1.40
2019-04-28T05:33:50.479Z,1.77
2019-04-28T05:36:21.590Z,1.63
2019-04-28T05:38:56.757Z,1.30
2019-04-28T05:44:41.707Z,1.40
2019-04-28T05:47:27.137Z,1.57
2019-04-28T05:50:14.000Z,1.50
2019-04-28T05:53:02.300Z,1.57
2019-04-28T05:55:57.315Z,1.23
2019-04-28T05:58:33.181Z,1.20
2019-04-28T06:01:30.455Z,1.37
2019-04-28T06:04:03.996Z,1.50
2019-04-28T06:06:40.404Z,1.50
2019-04-28T06:09:22.696Z,1.37
2019-04-28T06:11:54.456Z,1.70
2019-04-28T06:14:25.207Z,1.87
2019-04-28T06:17:00.437Z,1.90
2019-04-28T06:19:30.199Z,2.10
2019-04-28T06:22:04.884Z,2.03
2019-04-28T06:24:36.496Z,1.80
2019-04-28T06:27:23.381Z,2.17
2019-04-28T06:32:42.079Z,2.00
2019-04-28T06:35:43.796Z,2.60
2019-04-28T06:38:12.776Z,2.47
2019-04-28T06:40:41.939Z,2.70
2019-04-28T06:43:10.908Z,2.50
2019-04-28T06:45:47.600Z,3.20
2019-04-28T06:48:19.128Z,3.13
2019-04-28T06:50:48.343Z,3.13
2019-04-28T06:53:17.197Z,2.90
2019-04-28T06:55:46.322Z,2.77
2019-04-28T06:58:16.723Z,2.97
2019-04-28T07:00:46.277Z,3.10
2019-04-28T07:03:22.946Z,3.23
2019-04-28T07:05:55.489Z,3.00
2019-04-28T07:08:24.805Z,3.73
2019-04-28T07:11:05.519Z,3.57
2019-04-28T07:13:36.539Z,3.10
2019-04-28T07:16:07.586Z,3.53
2019-04-28T07:18:36.723Z,3.30
2019-04-28T07:21:38.665Z,4.20
2019-04-28T07:24:15.135Z,3.93
2019-04-28T07:26:47.107Z,4.37
2019-04-28T07:29:19.720Z,4.77
2019-04-28T07:31:49.147Z,5.60
2019-04-28T07:34:41.658Z,5.60
2019-04-28T07:37:05.440Z,6.67
2019-04-28T07:39:22.414Z,6.37
2019-04-28T07:42:01.469Z,7.40
2019-04-28T07:44:34.384Z,8.80
2019-04-28T07:47:03.568Z,7.53
2019-04-28T07:49:41.052Z,7.17
2019-04-28T07:52:32.564Z,6.93
2019-04-28T07:55:09.317Z,5.80
2019-04-28T07:57:38.389Z,6.03
2019-04-28T08:00:07.960Z,6.37
2019-04-28T08:02:45.851Z,6.00
2019-04-28T08:05:15.563Z,6.07
2019-04-28T08:08:12.359Z,6.13
2019-04-28T08:10:41.432Z,5.63
2019-04-28T08:13:10.852Z,7.67
2019-04-28T08:15:40.073Z,6.63
2019-04-28T08:18:09.054Z,7.07
2019-04-28T08:20:41.142Z,63.00
2019-04-28T08:23:10.288Z,58.60
2019-04-28T08:25:39.947Z,92.00
2019-04-28T08:28:10.114Z,57.53
2019-04-28T08:30:40.977Z,45.37
2019-04-28T08:33:29.441Z,39.90
2019-04-28T08:35:58.754Z,36.50
2019-04-28T08:38:37.293Z,31.40
2019-04-28T08:41:08.079Z,29.13
2019-04-28T08:43:38.626Z,28.07
2019-04-28T08:46:26.841Z,26.13
2019-04-28T08:48:58.207Z,20.63
2019-04-28T08:51:48.229Z,19.10
2019-04-28T08:54:17.468Z,17.70
2019-04-28T08:56:49.100Z,15.37
2019-04-28T08:59:19.473Z,12.27
2019-04-28T09:01:48.808Z,10.70
2019-04-28T09:04:22.565Z,9.30
2019-04-28T09:06:55.624Z,8.47
2019-04-28T09:09:25.496Z,8.47
2019-04-28T09:11:56.451Z,5.67
2019-04-28T09:14:26.445Z,7.87
2019-04-28T09:17:01.619Z,6.07
2019-04-28T09:19:43.353Z,6.50
2019-04-28T09:22:27.893Z,4.80
2019-04-28T09:25:00.985Z,5.87
2019-04-28T09:27:37.892Z,8.70
2019-04-28T09:32:52.836Z,5.00
2019-04-28T09:35:22.169Z,6.27
2019-04-28T09:38:01.162Z,7.27
2019-04-28T09:40:30.913Z,10.20
2019-04-28T09:43:24.643Z,9.83
2019-04-28T09:46:15.540Z,9.50
2019-04-28T09:48:48.061Z,11.13
2019-04-28T09:51:18.653Z,9.17
2019-04-28T09:53:50.124Z,9.87
2019-04-28T09:56:27.258Z,9.80
2019-04-28T09:58:57.118Z,8.90
2019-04-28T10:01:30.422Z,9.03
2019-04-28T10:04:01.272Z,11.03
2019-04-28T10:06:31.885Z,10.23
2019-04-28T10:09:02.855Z,10.83
2019-04-28T10:11:32.564Z,12.03
2019-04-28T10:14:07.831Z,12.20
2019-04-28T10:16:37.672Z,14.13
2019-04-28T10:19:10.324Z,12.60
2019-04-28T10:22:02.023Z,12.03
2019-04-28T10:24:33.244Z,11.97
2019-04-28T10:27:04.567Z,17.77
2019-04-28T10:29:34.233Z,18.30
2019-04-28T10:32:06.313Z,14.43
2019-04-28T10:34:40.811Z,15.30
2019-04-28T10:37:17.867Z,15.47
2019-04-28T10:40:02.584Z,16.73
2019-04-28T10:42:33.724Z,15.80
2019-04-28T10:45:18.869Z,14.80
2019-04-28T10:47:50.397Z,15.17
2019-04-28T10:50:23.320Z,15.77
2019-04-28T10:52:56.924Z,16.30
2019-04-28T10:55:30.198Z,15.73
2019-04-28T10:58:10.673Z,16.30
2019-04-28T11:00:42.299Z,17.37
2019-04-28T11:03:11.413Z,16.30
2019-04-28T11:05:55.362Z,15.97
2019-04-28T11:08:43.780Z,15.50
2019-04-28T11:13:58.630Z,15.00
2019-04-28T11:16:31.358Z,15.37
2019-04-28T11:19:00.373Z,14.90
2019-04-28T11:21:30.356Z,14.17
2019-04-28T11:24:00.536Z,14.20
2019-04-28T11:26:29.695Z,13.13
2019-04-28T11:28:59.375Z,12.20
2019-04-28T11:31:46.487Z,12.93
2019-04-28T11:34:26.316Z,11.93
2019-04-28T11:36:55.524Z,11.77
2019-04-28T11:39:44.947Z,10.87
2019-04-28T11:42:14.361Z,12.07
2019-04-28T11:44:45.253Z,12.17
2019-04-28T11:47:17.932Z,12.03
2019-04-28T11:49:49.036Z,13.17
2019-04-28T11:52:18.508Z,12.87
2019-04-28T11:54:47.907Z,12.60
2019-04-28T11:57:27.551Z,13.50
2019-04-28T12:00:06.589Z,12.53
2019-04-28T12:02:35.890Z,11.73
2019-04-28T12:05:14.062Z,11.73
2019-04-28T12:07:46.467Z,11.37
2019-04-28T12:10:22.726Z,11.83
2019-04-28T12:13:03.175Z,11.30
2019-04-28T12:15:49.479Z,11.77
2019-04-28T12:18:40.820Z,11.57
2019-04-28T12:21:10.827Z,11.47
2019-04-28T12:23:42.596Z,11.20
2019-04-28T12:26:19.977Z,11.00
2019-04-28T12:28:49.466Z,10.50
2019-04-28T12:31:19.979Z,10.97
2019-04-28T12:33:55.887Z,11.10
2019-04-28T12:36:25.472Z,10.30
2019-04-28T12:38:59.562Z,10.87
2019-04-28T12:41:29.221Z,10.27
2019-04-28T12:44:00.184Z,10.07
2019-04-28T12:52:12.763Z,10.80
2019-04-28T12:54:44.671Z,10.47
2019-04-28T12:57:14.047Z,9.97
2019-04-28T13:00:03.113Z,10.00
2019-04-28T13:03:04.899Z,9.60
2019-04-28T13:05:38.967Z,10.17
2019-04-28T13:08:10.130Z,9.20
2019-04-28T13:10:40.407Z,9.57
2019-04-28T13:13:09.811Z,9.60
2019-04-28T13:16:00.223Z,9.43
2019-04-28T13:24:06.688Z,9.53
2019-04-28T13:26:43.405Z,9.80
2019-04-28T13:29:14.375Z,8.60
2019-04-28T13:31:53.712Z,8.90
2019-04-28T13:34:40.744Z,8.03
2019-04-28T13:37:12.143Z,8.80
2019-04-28T13:40:16.827Z,8.23
2019-04-28T13:45:44.745Z,8.17
2019-04-28T13:48:14.475Z,8.77
2019-04-28T13:50:55.379Z,8.33
2019-04-28T13:53:27.868Z,7.67
2019-04-28T13:56:05.293Z,7.50
2019-04-28T13:58:37.571Z,6.87
2019-04-28T14:01:35.413Z,5.93
2019-04-28T14:04:28.327Z,5.27
2019-04-28T14:07:02.631Z,5.37
2019-04-28T14:09:39.770Z,5.27
2019-04-28T14:12:16.381Z,5.10
2019-04-28T14:14:47.345Z,5.10
2019-04-28T14:17:34.551Z,4.30
2019-04-28T14:20:03.806Z,3.77
2019-04-28T14:22:33.779Z,4.20
2019-04-28T14:25:17.871Z,4.77
2019-04-28T14:27:47.560Z,4.40
2019-04-28T14:30:51.550Z,4.07
2019-04-28T14:33:21.992Z,4.43
2019-04-28T14:35:51.284Z,4.20
2019-04-28T14:38:21.598Z,4.10
2019-04-28T14:43:40.859Z,4.30
2019-04-28T14:46:12.237Z,3.60
2019-04-28T14:48:41.683Z,4.00
2019-04-28T14:51:11.354Z,4.07
2019-04-28T14:56:21.445Z,4.20
2019-04-28T14:58:51.131Z,3.53
2019-04-28T15:01:37.212Z,3.70
2019-04-28T15:04:09.361Z,3.83
2019-04-28T15:06:55.119Z,3.73
2019-04-28T15:09:54.101Z,3.50
2019-04-28T15:12:25.493Z,3.23
2019-04-28T15:17:47.729Z,3.57
2019-04-28T15:20:17.275Z,3.20
2019-04-28T15:28:00.418Z,3.00
2019-04-28T15:30:29.342Z,3.30
2019-04-28T15:32:58.952Z,3.33
2019-04-28T15:38:13.955Z,3.23
2019-04-28T15:40:43.504Z,3.10
2019-04-28T15:43:16.035Z,3.30
2019-04-28T15:45:45.446Z,3.30
2019-04-28T15:48:58.477Z,2.80
2019-04-28T15:51:06.920Z,2.80
2019-04-28T15:53:57.217Z,2.80
2019-04-28T15:56:47.551Z,3.10
2019-04-28T15:59:31.691Z,2.90
2019-04-28T16:02:04.393Z,2.70
2019-04-28T16:04:36.677Z,2.80
2019-04-28T16:07:06.241Z,2.53
2019-04-28T16:09:35.335Z,3.10
2019-04-28T16:12:07.172Z,3.10
2019-04-28T16:14:36.732Z,2.80
2019-04-28T16:17:06.269Z,2.80
2019-04-28T16:19:39.841Z,2.77
2019-04-28T16:22:09.216Z,2.50
2019-04-28T16:24:39.241Z,2.50
2019-04-28T16:27:15.421Z,2.80
2019-04-28T16:29:40.846Z,2.37
2019-04-28T16:32:10.170Z,2.77
2019-04-28T16:34:39.942Z,2.23
2019-04-28T16:37:09.391Z,2.50
2019-04-28T16:39:38.658Z,2.60
2019-04-28T16:42:34.497Z,2.27
2019-04-28T16:45:10.563Z,2.33
2019-04-28T16:47:40.363Z,2.30
2019-04-28T16:50:27.748Z,2.20
2019-04-28T16:52:56.995Z,2.30
2019-04-28T16:55:33.527Z,2.40
2019-04-28T16:58:35.486Z,2.40
2019-04-28T17:01:23.677Z,2.30
2019-04-28T17:04:04.722Z,3.10
2019-04-28T17:06:39.814Z,2.63
2019-04-28T17:09:09.311Z,2.70
2019-04-28T17:11:40.366Z,2.70
2019-04-28T17:14:11.198Z,2.70
2019-04-28T17:16:41.037Z,4.20
2019-04-28T17:19:17.658Z,3.73
2019-04-28T17:21:59.310Z,3.17
2019-04-28T17:24:30.747Z,3.27
2019-04-28T17:27:05.281Z,3.40
2019-04-28T17:29:40.003Z,3.30
2019-04-28T17:32:12.183Z,3.57
2019-04-28T17:34:52.747Z,4.10
2019-04-28T17:37:25.339Z,3.87
2019-04-28T17:39:56.914Z,3.70
2019-04-28T17:43:05.262Z,3.63
2019-04-28T17:45:36.301Z,4.30
2019-04-28T17:48:28.116Z,3.17
2019-04-28T17:51:01.513Z,3.70
2019-04-28T17:53:53.946Z,4.03
2019-04-28T17:56:50.536Z,4.60
2019-04-28T17:59:23.517Z,4.80
2019-04-28T18:02:18.241Z,4.20
2019-04-28T18:05:00.428Z,4.27
2019-04-28T18:07:56.528Z,4.67
2019-04-28T18:13:43.658Z,4.63
2019-04-28T18:16:39.739Z,9.00
2019-04-28T18:19:15.787Z,43.10
2019-04-28T18:24:47.171Z,19.00
2019-04-28T18:27:20.880Z,23.93
2019-04-28T18:29:50.546Z,20.30
2019-04-28T18:32:31.031Z,63.07
2019-04-28T18:35:06.248Z,68.70
2019-04-28T18:38:03.342Z,69.87
2019-04-28T18:40:50.231Z,55.97
2019-04-28T18:44:00.657Z,50.53
2019-04-28T18:46:24.144Z,43.23
2019-04-28T18:48:56.054Z,37.00
2019-04-28T18:51:35.673Z,32.73
2019-04-28T18:57:18.206Z,23.93
2019-04-28T18:59:51.244Z,21.90
2019-04-28T19:02:46.504Z,18.60
2019-04-28T19:05:17.039Z,17.47
2019-04-28T19:08:24.494Z,17.10
2019-04-28T19:11:13.064Z,17.03
2019-04-28T19:13:49.410Z,16.00
2019-04-28T19:16:36.464Z,14.83
2019-04-28T19:19:08.039Z,15.30
2019-04-28T19:21:37.429Z,14.77
2019-04-28T19:24:26.327Z,14.03
2019-04-28T19:26:57.093Z,13.57
2019-04-28T19:29:29.527Z,13.40
2019-04-28T19:32:01.109Z,12.83
2019-04-28T19:34:55.115Z,13.63
2019-04-28T19:37:24.248Z,14.03
2019-04-28T19:39:54.647Z,14.23
2019-04-28T19:42:25.947Z,13.03
2019-04-28T19:44:55.758Z,14.70
2019-04-28T19:49:59.092Z,14.30
2019-04-28T19:52:28.885Z,12.87
2019-04-28T19:55:25.089Z,15.33
2019-04-28T20:00:50.093Z,15.87
2019-04-28T20:03:19.997Z,16.13
2019-04-28T20:05:50.236Z,14.97
2019-04-28T20:08:19.472Z,16.20
2019-04-28T20:10:49.356Z,16.57
2019-04-28T20:13:23.243Z,15.50
2019-04-28T20:15:53.308Z,14.93
2019-04-28T20:18:24.833Z,13.67
2019-04-28T20:20:55.827Z,12.90
2019-04-28T20:23:26.271Z,14.67
2019-04-28T20:26:00.525Z,13.57
2019-04-28T20:28:31.273Z,12.53
2019-04-28T20:31:03.697Z,11.80
2019-04-28T20:33:37.024Z,13.20
2019-04-28T20:36:16.652Z,15.93
2019-04-28T20:38:57.262Z,18.03
2019-04-28T20:41:33.914Z,17.43
2019-04-28T20:44:07.299Z,16.90
2019-04-28T20:46:39.968Z,16.77
2019-04-28T20:49:24.831Z,16.33
2019-04-28T20:52:00.631Z,19.10
2019-04-28T20:54:30.139Z,19.50
2019-04-28T20:59:29.135Z,20.77
2019-04-28T21:01:59.867Z,20.97
2019-04-28T21:04:40.055Z,22.23
2019-04-28T21:07:13.159Z,22.03
2019-04-28T21:09:46.794Z,21.70
2019-04-28T21:12:30.907Z,22.50
2019-04-28T21:15:00.758Z,23.10
2019-04-28T21:17:37.947Z,24.33
2019-04-28T21:20:09.160Z,25.97
2019-04-28T21:22:48.615Z,26.13
2019-04-28T21:25:19.967Z,25.77
2019-04-28T21:27:57.132Z,26.73
2019-04-28T21:30:32.930Z,25.10
2019-04-28T21:33:03.529Z,26.70
2019-04-28T21:35:33.655Z,26.57
2019-04-28T21:38:03.065Z,26.17
2019-04-28T21:40:34.707Z,26.67
2019-04-28T21:43:22.106Z,27.33
2019-04-28T21:46:12.039Z,26.23
2019-04-28T21:48:47.328Z,26.77
2019-04-28T21:51:18.727Z,27.47
2019-04-28T21:58:57.548Z,28.37
2019-04-28T22:01:29.067Z,28.03
2019-04-28T22:04:20.141Z,27.27
2019-04-28T22:07:01.503Z,29.03
2019-04-28T22:12:14.950Z,28.67
2019-04-28T22:14:45.204Z,29.40
2019-04-28T22:17:16.447Z,28.73
2019-04-28T22:19:49.769Z,28.57
2019-04-28T22:22:22.941Z,27.50
2019-04-28T22:25:11.065Z,28.70
2019-04-28T22:27:59.507Z,28.87
2019-04-28T22:30:31.268Z,27.63
2019-04-28T22:33:01.140Z,27.97
2019-04-28T22:35:31.287Z,28.57
2019-04-28T22:38:01.823Z,28.03
2019-04-28T22:40:37.077Z,28.77
2019-04-28T22:43:11.891Z,27.07
2019-04-28T22:45:51.728Z,28.43
2019-04-28T22:51:10.724Z,29.20
2019-04-28T22:53:41.312Z,28.77
2019-04-28T22:56:32.746Z,28.77
2019-04-28T22:59:05.984Z,28.90
2019-04-28T23:01:50.419Z,27.87
2019-04-28T23:04:43.258Z,28.30
2019-04-28T23:07:13.378Z,28.40
2019-04-28T23:09:46.943Z,29.83
2019-04-28T23:12:27.876Z,28.97
2019-04-28T23:14:58.593Z,29.13
2019-04-28T23:17:35.357Z,30.07
2019-04-28T23:20:27.913Z,29.40
2019-04-28T23:22:59.780Z,31.20
2019-04-28T23:28:18.372Z,30.80
2019-04-28T23:30:49.935Z,29.50
2019-04-28T23:33:37.932Z,31.23
2019-04-28T23:36:26.517Z,30.60
2019-04-28T23:38:55.428Z,33.17
2019-04-28T23:41:47.748Z,30.63
2019-04-28T23:44:17.202Z,30.63
2019-04-28T23:46:59.270Z,31.33
2019-04-28T23:49:29.370Z,30.50
2019-04-28T23:52:14.668Z,30.83
2019-04-28T23:54:47.834Z,31.00
2019-04-28T23:57:17.739Z,31.57
2019-04-28T23:59:55.415Z,29.80
